createdAt,value
2017-11-10T00:01:43.279Z,70.77
2017-11-10T00:03:44.373Z,74.80
2017-11-10T00:05:45.377Z,83.80
2017-11-10T00:07:47.216Z,66.33
2017-11-10T00:09:48.254Z,65.50
2017-11-10T00:11:49.260Z,76.37
2017-11-10T00:13:50.323Z,69.13
2017-11-10T00:15:51.412Z,68.67
2017-11-10T00:17:52.417Z,68.27
2017-11-10T00:19:53.449Z,65.17
2017-11-10T00:21:54.674Z,54.23
2017-11-10T00:23:55.696Z,61.77
2017-11-10T00:25:56.848Z,54.67
2017-11-10T00:27:57.873Z,60.90
2017-11-10T00:29:58.955Z,51.37
2017-11-10T00:31:59.925Z,57.97
2017-11-10T00:34:01.659Z,54.73
2017-11-10T00:36:02.687Z,55.20
2017-11-10T00:38:03.718Z,55.10
2017-11-10T00:40:04.774Z,53.90
2017-11-10T00:42:05.769Z,56.87
2017-11-10T00:44:06.834Z,55.27
2017-11-10T00:46:07.829Z,53.83
2017-11-10T00:48:08.824Z,56.67
2017-11-10T00:50:10.692Z,49.07
2017-11-10T00:52:11.726Z,53.60
2017-11-10T00:54:12.785Z,49.90
2017-11-10T00:56:14.722Z,49.67
2017-11-10T00:58:15.770Z,52.50
2017-11-10T01:00:16.737Z,57.57
2017-11-10T01:02:18.523Z,53.97
2017-11-10T01:04:19.529Z,52.37
2017-11-10T01:06:20.788Z,46.13
2017-11-10T01:08:22.593Z,54.00
2017-11-10T01:10:23.587Z,48.47
2017-11-10T01:12:24.622Z,47.63
2017-11-10T01:14:25.632Z,49.77
2017-11-10T01:16:26.611Z,62.67
2017-11-10T01:18:27.602Z,49.17
2017-11-10T01:20:28.577Z,45.17
2017-11-10T01:22:29.776Z,51.23
2017-11-10T01:24:30.799Z,41.37
2017-11-10T01:26:31.864Z,41.90
2017-11-10T01:28:32.863Z,45.10
2017-11-10T01:30:34.627Z,58.53
2017-11-10T01:32:36.352Z,42.20
2017-11-10T01:34:37.447Z,48.00
2017-11-10T01:36:38.409Z,43.30
2017-11-10T01:38:39.458Z,44.13
2017-11-10T01:40:40.440Z,49.90
2017-11-10T01:42:41.537Z,38.80
2017-11-10T01:44:42.604Z,37.03
2017-11-10T01:46:43.630Z,47.63
2017-11-10T01:48:50.754Z,41.20
2017-11-10T01:50:51.785Z,44.97
2017-11-10T01:52:52.766Z,44.27
2017-11-10T01:54:53.726Z,43.53
2017-11-10T01:56:54.926Z,39.60
2017-11-10T01:58:56.129Z,42.80
2017-11-10T02:00:57.205Z,44.50
2017-11-10T02:02:58.265Z,43.83
2017-11-10T02:04:59.359Z,36.70
2017-11-10T02:07:00.342Z,41.37
2017-11-10T02:09:02.130Z,45.30
2017-11-10T02:11:03.177Z,40.30
2017-11-10T02:13:04.232Z,40.77
2017-11-10T02:15:05.278Z,43.40
2017-11-10T02:17:06.237Z,38.10
2017-11-10T02:19:07.241Z,42.33
2017-11-10T02:21:08.258Z,42.70
2017-11-10T02:23:09.315Z,43.13
2017-11-10T02:25:10.396Z,42.23
2017-11-10T02:27:11.448Z,45.30
2017-11-10T02:29:13.165Z,45.43
2017-11-10T02:31:14.169Z,35.93
2017-11-10T02:33:18.062Z,44.30
2017-11-10T02:35:19.072Z,40.30
2017-11-10T02:37:20.066Z,54.97
2017-11-10T02:39:21.103Z,43.17
2017-11-10T02:41:22.919Z,40.47
2017-11-10T02:43:23.920Z,45.20
2017-11-10T02:45:24.988Z,46.90
2017-11-10T02:47:26.171Z,38.87
2017-11-10T02:49:27.182Z,36.97
2017-11-10T02:51:28.154Z,38.07
2017-11-10T02:53:29.171Z,31.93
2017-11-10T02:55:30.347Z,43.80
2017-11-10T02:57:31.358Z,34.40
2017-11-10T02:59:33.115Z,34.57
2017-11-10T03:01:34.168Z,37.93
2017-11-10T03:03:35.956Z,33.10
2017-11-10T03:05:36.999Z,31.23
2017-11-10T03:07:37.967Z,34.40
2017-11-10T03:09:39.076Z,29.10
2017-11-10T03:11:40.376Z,28.77
2017-11-10T03:13:41.462Z,29.50
2017-11-10T03:15:42.466Z,27.60
2017-11-10T03:17:43.538Z,29.33
2017-11-10T03:19:44.526Z,29.40
2017-11-10T03:21:45.605Z,30.47
2017-11-10T03:23:46.585Z,29.20
2017-11-10T03:25:47.645Z,32.90
2017-11-10T03:27:49.379Z,31.57
2017-11-10T03:29:50.350Z,27.83
2017-11-10T03:31:51.497Z,32.50
2017-11-10T03:33:52.478Z,28.03
2017-11-10T03:35:54.282Z,23.27
2017-11-10T03:37:55.393Z,38.23
2017-11-10T03:39:56.388Z,41.37
2017-11-10T03:41:57.397Z,36.90
2017-11-10T03:43:58.421Z,36.07
2017-11-10T03:45:59.404Z,40.67
2017-11-10T03:48:00.465Z,45.53
2017-11-10T03:50:01.517Z,50.47
2017-11-10T03:52:02.694Z,40.20
2017-11-10T03:54:04.409Z,35.37
2017-11-10T03:56:05.488Z,43.17
2017-11-10T03:58:06.715Z,42.83
2017-11-10T04:00:07.747Z,43.80
2017-11-10T04:02:08.773Z,47.73
2017-11-10T04:04:10.718Z,44.17
2017-11-10T04:06:11.798Z,43.43
2017-11-10T04:08:13.547Z,39.07
2017-11-10T04:10:15.921Z,49.20
2017-11-10T04:12:16.965Z,47.37
2017-11-10T04:14:18.065Z,42.40
2017-11-10T04:16:19.289Z,49.10
2017-11-10T04:18:20.339Z,50.27
2017-11-10T04:20:21.334Z,54.20
2017-11-10T04:22:22.473Z,41.87
2017-11-10T04:24:23.492Z,47.13
2017-11-10T04:26:24.574Z,49.13
2017-11-10T04:28:25.755Z,49.47
2017-11-10T04:30:26.731Z,55.93
2017-11-10T04:32:27.750Z,54.87
2017-11-10T04:34:28.734Z,52.47
2017-11-10T04:36:29.703Z,52.30
2017-11-10T04:38:30.661Z,50.57
2017-11-10T04:40:31.634Z,51.43
2017-11-10T04:42:32.758Z,52.60
2017-11-10T04:44:33.832Z,53.20
2017-11-10T04:46:37.014Z,55.33
2017-11-10T04:48:38.220Z,48.57
2017-11-10T04:50:39.385Z,48.40
2017-11-10T04:52:40.596Z,45.37
2017-11-10T04:54:41.725Z,49.07
2017-11-10T04:56:43.659Z,49.27
2017-11-10T04:58:44.819Z,53.07
2017-11-10T05:00:47.541Z,51.47
2017-11-10T05:02:51.290Z,47.37
2017-11-10T05:04:52.506Z,56.00
2017-11-10T05:06:53.643Z,51.20
2017-11-10T05:08:55.721Z,42.13
2017-11-10T05:10:57.746Z,44.90
2017-11-10T05:12:58.998Z,47.67
2017-11-10T05:15:00.192Z,58.17
2017-11-10T05:17:01.392Z,51.33
2017-11-10T05:19:02.536Z,54.83
2017-11-10T05:21:03.736Z,59.63
2017-11-10T05:23:04.840Z,58.67
2017-11-10T05:25:06.022Z,58.83
2017-11-10T05:27:07.373Z,63.50
2017-11-10T05:29:12.425Z,72.83
2017-11-10T05:31:13.630Z,56.37
2017-11-10T05:33:19.185Z,59.77
2017-11-10T05:35:20.422Z,66.87
2017-11-10T05:37:21.637Z,69.97
2017-11-10T05:39:22.773Z,63.90
2017-11-10T05:41:23.972Z,71.63
2017-11-10T05:43:25.150Z,68.57
2017-11-10T05:45:26.305Z,73.13
2017-11-10T05:47:27.464Z,63.53
2017-11-10T05:49:28.614Z,67.00
2017-11-10T05:51:29.789Z,68.90
2017-11-10T05:53:30.964Z,77.27
2017-11-10T05:55:32.141Z,81.80
2017-11-10T05:57:33.640Z,84.90
2017-11-10T05:59:34.940Z,99.30
2017-11-10T06:01:36.769Z,72.93
2017-11-10T06:03:38.105Z,65.20
2017-11-10T06:05:39.337Z,77.60
2017-11-10T06:07:42.348Z,71.97
2017-11-10T06:09:45.277Z,65.67
2017-11-10T06:11:47.581Z,79.83
2017-11-10T06:13:48.814Z,83.10
2017-11-10T06:15:50.754Z,97.00
2017-11-10T06:17:51.902Z,83.37
2017-11-10T06:19:53.236Z,70.13
2017-11-10T06:21:54.607Z,85.10
2017-11-10T06:23:55.974Z,83.77
2017-11-10T06:25:57.176Z,93.60
2017-11-10T06:27:58.396Z,81.47
2017-11-10T06:29:59.542Z,94.73
2017-11-10T06:32:01.351Z,76.20
2017-11-10T06:34:02.935Z,73.00
2017-11-10T06:36:04.686Z,69.87
2017-11-10T06:38:05.972Z,64.83
2017-11-10T06:40:08.438Z,76.77
2017-11-10T06:42:09.763Z,70.37
2017-11-10T06:44:12.284Z,71.63
2017-11-10T06:46:16.255Z,83.40
2017-11-10T06:48:25.109Z,82.73
2017-11-10T06:50:26.385Z,66.10
2017-11-10T06:52:27.705Z,84.40
2017-11-10T06:54:29.070Z,75.67
2017-11-10T06:56:30.265Z,86.03
2017-11-10T06:58:33.021Z,114.72
2017-11-10T07:00:35.144Z,96.67
2017-11-10T07:02:37.134Z,90.10
2017-11-10T07:04:38.346Z,79.43
2017-11-10T07:06:39.533Z,95.20
2017-11-10T07:08:40.726Z,70.30
2017-11-10T07:10:41.883Z,88.03
2017-11-10T07:12:43.079Z,82.57
2017-11-10T07:14:44.230Z,77.67
2017-11-10T07:16:45.382Z,80.40
2017-11-10T07:18:46.496Z,75.40
2017-11-10T07:20:47.679Z,70.33
2017-11-10T07:22:48.819Z,65.83
2017-11-10T07:24:50.724Z,79.37
2017-11-10T07:26:51.865Z,70.00
2017-11-10T07:28:52.989Z,65.30
2017-11-10T07:30:54.138Z,58.60
2017-11-10T07:32:56.088Z,49.70
2017-11-10T07:34:57.348Z,57.07
2017-11-10T07:36:59.238Z,47.70
2017-11-10T07:39:00.387Z,58.20
2017-11-10T07:41:01.508Z,42.23
2017-11-10T07:43:02.703Z,39.37
2017-11-10T07:45:03.846Z,35.43
2017-11-10T07:47:05.014Z,43.47
2017-11-10T07:49:06.166Z,49.40
2017-11-10T07:51:07.356Z,48.13
2017-11-10T07:53:08.482Z,43.47
2017-11-10T07:55:09.651Z,50.73
2017-11-10T07:57:10.804Z,45.20
2017-11-10T07:59:11.986Z,60.47
2017-11-10T08:01:13.855Z,49.07
2017-11-10T08:03:15.066Z,61.27
2017-11-10T08:05:16.239Z,62.57
2017-11-10T08:07:18.196Z,61.30
2017-11-10T08:09:20.387Z,63.33
2017-11-10T08:11:21.608Z,52.57
2017-11-10T08:13:22.736Z,56.13
2017-11-10T08:15:23.979Z,51.57
2017-11-10T08:17:25.432Z,49.00
2017-11-10T08:19:28.751Z,65.40
2017-11-10T08:21:32.817Z,65.13
2017-11-10T08:23:34.982Z,53.80
2017-11-10T08:25:38.102Z,50.40
2017-11-10T08:27:39.395Z,71.60
2017-11-10T08:29:40.566Z,57.00
2017-11-10T08:31:41.743Z,68.57
2017-11-10T08:33:42.926Z,66.67
2017-11-10T08:35:44.202Z,65.67
2017-11-10T08:37:45.408Z,83.80
2017-11-10T08:39:46.769Z,71.33
2017-11-10T08:41:48.218Z,68.87
2017-11-10T08:43:49.669Z,65.90
2017-11-10T08:45:50.862Z,70.17
2017-11-10T08:47:54.203Z,71.23
2017-11-10T08:49:55.702Z,58.30
2017-11-10T08:51:56.874Z,69.43
2017-11-10T08:53:58.044Z,57.47
2017-11-10T08:55:59.223Z,75.50
2017-11-10T08:58:00.634Z,58.57
2017-11-10T09:00:02.710Z,62.60
2017-11-10T09:02:04.011Z,73.67
2017-11-10T09:04:05.196Z,66.63
2017-11-10T09:06:06.489Z,76.27
2017-11-10T09:08:07.751Z,64.27
2017-11-10T09:10:08.956Z,60.90
2017-11-10T09:12:10.861Z,58.83
2017-11-10T09:14:12.101Z,70.27
2017-11-10T09:16:13.376Z,54.37
2017-11-10T09:18:14.729Z,75.40
2017-11-10T09:20:16.055Z,60.27
2017-11-10T09:22:17.320Z,64.73
2017-11-10T09:24:18.696Z,58.47
2017-11-10T09:26:19.927Z,61.67
2017-11-10T09:31:09.482Z,60.00
2017-11-10T09:33:26.197Z,58.67
2017-11-10T09:35:33.318Z,53.13
2017-11-10T09:37:41.085Z,61.00
2017-11-10T09:39:48.188Z,62.73
2017-11-10T09:41:55.448Z,65.97
2017-11-10T09:43:58.229Z,71.60
2017-11-10T09:46:05.408Z,59.20
2017-11-10T09:48:12.593Z,59.80
2017-11-10T09:50:19.722Z,71.87
2017-11-10T09:55:20.604Z,67.03
2017-11-10T09:57:21.572Z,56.40
2017-11-10T09:59:28.570Z,74.70
2017-11-10T10:01:34.997Z,54.50
2017-11-10T10:03:37.941Z,64.20
2017-11-10T10:05:42.667Z,70.97
2017-11-10T10:07:49.472Z,68.57
2017-11-10T10:09:56.466Z,72.40
2017-11-10T10:11:59.242Z,68.43
2017-11-10T10:14:01.786Z,65.60
2017-11-10T10:16:08.782Z,76.87
2017-11-10T10:18:15.926Z,70.77
2017-11-10T10:20:19.665Z,62.60
2017-11-10T10:25:00.397Z,61.47
2017-11-10T10:27:01.353Z,69.07
2017-11-10T10:29:03.674Z,61.70
2017-11-10T10:31:05.215Z,59.40
2017-11-10T10:33:06.231Z,60.00
2017-11-10T10:35:07.164Z,69.87
2017-11-10T10:37:08.145Z,63.47
2017-11-10T10:39:09.896Z,43.97
2017-11-10T10:41:10.848Z,62.90
2017-11-10T10:43:12.549Z,61.57
2017-11-10T10:45:13.480Z,61.70
2017-11-10T10:47:14.417Z,61.90
2017-11-10T10:49:15.362Z,59.10
2017-11-10T10:51:16.289Z,61.13
2017-11-10T10:53:18.004Z,61.50
2017-11-10T10:55:18.934Z,61.77
2017-11-10T10:57:19.924Z,56.27
2017-11-10T10:59:20.908Z,60.43
2017-11-10T11:01:21.869Z,61.27
2017-11-10T11:03:22.809Z,65.83
2017-11-10T11:05:23.754Z,65.43
2017-11-10T11:07:24.753Z,58.47
2017-11-10T11:09:25.696Z,57.23
2017-11-10T11:11:26.641Z,60.40
2017-11-10T11:13:27.606Z,57.37
2017-11-10T11:15:29.286Z,55.10
2017-11-10T11:17:30.259Z,51.37
2017-11-10T11:19:31.284Z,65.10
2017-11-10T11:21:33.017Z,53.00
2017-11-10T11:23:34.034Z,61.47
2017-11-10T11:25:34.970Z,57.23
2017-11-10T11:27:35.935Z,62.23
2017-11-10T11:29:36.912Z,54.53
2017-11-10T11:31:38.589Z,44.80
2017-11-10T11:33:40.269Z,47.83
2017-11-10T11:35:41.223Z,50.17
2017-11-10T11:37:42.134Z,51.87
2017-11-10T11:39:43.825Z,48.97
2017-11-10T11:41:44.773Z,52.63
2017-11-10T11:43:45.814Z,51.67
2017-11-10T11:45:46.784Z,52.77
2017-11-10T11:47:47.718Z,47.60
2017-11-10T11:49:48.707Z,45.43
2017-11-10T11:51:49.669Z,46.13
2017-11-10T11:53:51.369Z,40.43
2017-11-10T11:55:52.377Z,33.63
2017-11-10T11:57:54.114Z,37.80
2017-11-10T11:59:55.097Z,38.30
2017-11-10T12:01:56.819Z,38.83
2017-11-10T12:03:57.761Z,27.00
2017-11-10T12:05:58.757Z,44.33
2017-11-10T12:08:00.456Z,35.63
2017-11-10T12:10:01.513Z,32.27
2017-11-10T12:12:02.453Z,29.57
2017-11-10T12:14:03.402Z,37.43
2017-11-10T12:16:04.353Z,32.93
2017-11-10T12:18:05.358Z,42.30
2017-11-10T12:20:06.292Z,40.63
2017-11-10T12:22:08.020Z,38.70
2017-11-10T12:24:09.006Z,33.50
2017-11-10T12:26:10.689Z,35.90
2017-11-10T12:28:11.684Z,28.10
2017-11-10T12:30:12.686Z,35.17
2017-11-10T12:32:13.643Z,42.17
2017-11-10T12:34:14.578Z,32.47
2017-11-10T12:36:15.571Z,41.73
2017-11-10T12:38:17.299Z,39.53
2017-11-10T12:40:18.281Z,34.83
2017-11-10T12:42:19.209Z,36.30
2017-11-10T12:44:20.156Z,34.93
2017-11-10T12:46:21.158Z,34.93
2017-11-10T12:48:22.153Z,37.67
2017-11-10T12:50:23.104Z,33.63
2017-11-10T12:52:24.085Z,38.30
2017-11-10T12:54:25.760Z,39.17
2017-11-10T12:56:26.897Z,27.30
2017-11-10T12:58:28.608Z,37.00
2017-11-10T13:00:29.570Z,41.23
2017-11-10T13:02:30.583Z,42.50
2017-11-10T13:04:31.565Z,38.47
2017-11-10T13:06:32.522Z,46.13
2017-11-10T13:08:33.474Z,47.70
2017-11-10T13:10:34.438Z,50.37
2017-11-10T13:12:36.170Z,44.60
2017-11-10T13:14:37.168Z,45.20
2017-11-10T13:16:38.168Z,42.13
2017-11-10T13:18:39.177Z,48.07
2017-11-10T13:20:40.177Z,53.57
2017-11-10T13:22:41.934Z,48.30
2017-11-10T13:24:43.667Z,59.80
2017-11-10T13:26:44.659Z,52.10
2017-11-10T13:28:45.679Z,52.60
2017-11-10T13:30:46.717Z,63.47
2017-11-10T13:32:47.707Z,40.87
2017-11-10T13:34:49.384Z,50.50
2017-11-10T13:36:50.360Z,46.77
2017-11-10T13:38:51.333Z,56.10
2017-11-10T13:40:52.296Z,31.37
2017-11-10T13:42:54.017Z,45.47
2017-11-10T13:44:55.877Z,48.40
2017-11-10T13:46:56.831Z,59.10
2017-11-10T13:48:57.853Z,61.63
2017-11-10T13:51:00.546Z,54.40
2017-11-10T13:53:01.569Z,54.70
2017-11-10T13:55:03.284Z,53.03
2017-11-10T13:57:04.254Z,62.87
2017-11-10T13:59:05.231Z,57.63
2017-11-10T14:01:06.190Z,51.43
2017-11-10T14:03:07.156Z,56.73
2017-11-10T14:05:08.113Z,49.73
2017-11-10T14:07:09.162Z,50.57
2017-11-10T14:09:10.169Z,47.27
2017-11-10T14:11:11.114Z,44.67
2017-11-10T14:13:15.752Z,35.90
2017-11-10T14:15:16.684Z,34.87
2017-11-10T14:17:17.649Z,31.30
2017-11-10T14:19:18.625Z,35.27
2017-11-10T14:21:19.573Z,33.87
2017-11-10T14:23:20.562Z,33.07
2017-11-10T14:25:21.523Z,30.57
2017-11-10T14:27:22.521Z,39.03
2017-11-10T14:29:23.566Z,34.47
2017-11-10T14:31:24.539Z,30.47
2017-11-10T14:33:26.299Z,35.20
2017-11-10T14:35:28.013Z,9.57
2017-11-10T14:37:28.998Z,8.00
2017-11-10T14:39:29.973Z,14.83
2017-11-10T14:41:30.919Z,11.73
2017-11-10T14:43:31.884Z,9.93
2017-11-10T14:45:32.845Z,17.10
2017-11-10T14:47:33.854Z,8.73
2017-11-10T14:49:34.822Z,8.80
2017-11-10T14:51:35.785Z,6.93
2017-11-10T14:53:36.754Z,11.97
2017-11-10T14:55:38.253Z,9.60
2017-11-10T14:57:39.197Z,11.47
2017-11-10T14:59:40.873Z,7.40
2017-11-10T15:01:41.813Z,8.10
2017-11-10T15:03:42.764Z,7.20
2017-11-10T15:05:43.783Z,10.33
2017-11-10T15:07:45.506Z,8.00
2017-11-10T15:09:46.454Z,8.93
2017-11-10T15:11:47.403Z,8.13
2017-11-10T15:13:48.404Z,6.07
2017-11-10T15:15:49.355Z,4.17
2017-11-10T15:17:50.310Z,10.60
2017-11-10T15:19:51.276Z,5.53
2017-11-10T15:21:52.292Z,11.93
2017-11-10T15:23:53.537Z,14.43
2017-11-10T15:25:54.694Z,17.70
2017-11-10T15:27:57.508Z,6.87
2017-11-10T15:29:58.524Z,5.33
2017-11-10T15:32:00.181Z,10.70
2017-11-10T15:34:01.217Z,7.00
2017-11-10T15:36:02.998Z,4.37
2017-11-10T15:38:03.965Z,6.33
2017-11-10T15:40:04.932Z,9.40
2017-11-10T15:42:05.904Z,14.18
2017-11-10T15:44:06.884Z,11.90
2017-11-10T15:46:07.812Z,11.43
2017-11-10T15:48:09.544Z,7.70
2017-11-10T15:50:10.505Z,10.60
2017-11-10T15:52:12.018Z,6.87
2017-11-10T15:54:12.969Z,14.77
2017-11-10T15:56:13.970Z,7.10
2017-11-10T15:58:14.944Z,10.53
2017-11-10T16:00:18.430Z,7.37
2017-11-10T16:02:20.697Z,5.23
2017-11-10T16:04:23.622Z,11.70
2017-11-10T16:06:25.611Z,12.93
2017-11-10T16:08:26.731Z,7.67
2017-11-10T16:10:27.751Z,20.90
2017-11-10T16:12:29.549Z,7.60
2017-11-10T16:14:30.521Z,15.87
2017-11-10T16:16:32.789Z,4.67
2017-11-10T16:18:33.759Z,10.47
2017-11-10T16:20:34.730Z,7.43
2017-11-10T16:22:35.830Z,8.43
2017-11-10T16:24:36.806Z,8.67
2017-11-10T16:26:37.807Z,8.57
2017-11-10T16:28:38.797Z,9.73
2017-11-10T16:30:39.823Z,11.67
2017-11-10T16:32:40.916Z,7.20
2017-11-10T16:34:41.923Z,11.47
2017-11-10T16:36:42.934Z,20.97
2017-11-10T16:38:44.803Z,16.43
2017-11-10T16:40:49.967Z,11.27
2017-11-10T16:42:51.725Z,13.83
2017-11-10T16:47:22.317Z,14.63
2017-11-10T16:49:23.542Z,10.83
2017-11-10T16:51:25.301Z,14.67
2017-11-10T16:53:26.432Z,23.87
2017-11-10T16:55:27.606Z,19.23
2017-11-10T16:57:28.653Z,16.40
2017-11-10T16:59:29.623Z,9.20
2017-11-10T17:01:30.580Z,20.60
2017-11-10T17:03:31.569Z,21.40
2017-11-10T17:05:33.300Z,7.83
2017-11-10T17:07:34.289Z,13.87
2017-11-10T17:09:35.995Z,11.10
2017-11-10T17:11:36.974Z,13.20
2017-11-10T17:13:37.969Z,6.87
2017-11-10T17:15:38.974Z,7.93
2017-11-10T17:17:40.024Z,13.00
2017-11-10T17:19:41.067Z,14.97
2017-11-10T17:21:42.785Z,20.93
2017-11-10T17:23:44.316Z,14.60
2017-11-10T17:25:51.108Z,16.23
2017-11-10T17:27:52.434Z,21.27
2017-11-10T17:29:54.527Z,16.90
2017-11-10T17:31:55.627Z,28.20
2017-11-10T17:33:58.053Z,27.87
2017-11-10T17:35:59.087Z,6.03
2017-11-10T17:38:00.838Z,11.30
2017-11-10T17:40:05.998Z,15.87
2017-11-10T17:42:07.709Z,24.70
2017-11-10T17:44:09.681Z,14.40
2017-11-10T17:46:10.760Z,25.27
2017-11-10T17:48:12.522Z,21.67
2017-11-10T17:50:13.600Z,20.07
2017-11-10T17:52:14.670Z,15.90
2017-11-10T17:54:15.673Z,20.27
2017-11-10T17:56:16.653Z,16.70
2017-11-10T17:58:17.740Z,15.93
2017-11-10T18:00:19.212Z,19.60
2017-11-10T18:02:21.022Z,17.73
2017-11-10T18:04:22.021Z,10.00
2017-11-10T18:06:24.914Z,12.40
2017-11-10T18:08:25.912Z,13.23
2017-11-10T18:10:26.978Z,18.23
2017-11-10T18:12:28.022Z,10.90
2017-11-10T18:14:29.127Z,22.60
2017-11-10T18:16:31.770Z,15.67
2017-11-10T18:18:32.743Z,14.90
2017-11-10T18:20:33.793Z,15.90
2017-11-10T18:22:35.987Z,12.10
2017-11-10T18:24:37.743Z,20.63
2017-11-10T18:26:38.841Z,16.57
2017-11-10T18:28:40.481Z,34.43
2017-11-10T18:30:41.553Z,19.17
2017-11-10T18:32:42.643Z,10.70
2017-11-10T18:34:43.671Z,10.70
2017-11-10T18:36:44.830Z,11.50
2017-11-10T18:38:45.904Z,16.00
2017-11-10T18:40:47.800Z,16.03
2017-11-10T18:42:48.912Z,9.23
2017-11-10T18:44:57.898Z,11.70
2017-11-10T18:47:03.110Z,13.63
2017-11-10T18:49:11.751Z,22.37
2017-11-10T18:51:13.969Z,16.57
2017-11-10T18:53:15.044Z,12.20
2017-11-10T18:55:16.037Z,11.17
2017-11-10T18:57:17.705Z,7.37
2017-11-10T18:59:18.715Z,15.43
2017-11-10T19:01:20.401Z,6.07
2017-11-10T19:03:21.356Z,10.80
2017-11-10T19:05:22.338Z,11.37
2017-11-10T19:07:23.288Z,10.00
2017-11-10T19:09:24.236Z,12.30
2017-11-10T19:11:25.184Z,7.13
2017-11-10T19:13:26.142Z,20.73
2017-11-10T19:15:27.106Z,20.27
2017-11-10T19:17:28.776Z,7.73
2017-11-10T19:19:29.985Z,10.33
2017-11-10T19:21:30.994Z,9.77
2017-11-10T19:23:31.937Z,18.90
2017-11-10T19:25:32.892Z,4.43
2017-11-10T19:27:33.814Z,16.67
2017-11-10T19:29:35.613Z,7.93
2017-11-10T19:31:36.562Z,7.03
2017-11-10T19:33:37.504Z,11.37
2017-11-10T19:35:38.478Z,13.18
2017-11-10T19:37:39.404Z,7.00
2017-11-10T19:39:40.377Z,6.77
2017-11-10T19:41:41.339Z,8.50
2017-11-10T19:43:43.027Z,4.73
2017-11-10T19:45:43.972Z,8.80
2017-11-10T19:47:45.195Z,7.07
2017-11-10T19:49:46.905Z,12.40
2017-11-10T19:51:48.019Z,19.47
2017-11-10T19:53:49.881Z,11.20
2017-11-10T19:55:50.866Z,8.77
2017-11-10T19:57:51.866Z,11.40
2017-11-10T19:59:52.865Z,6.10
2017-11-10T20:01:53.855Z,9.77
2017-11-10T20:03:55.583Z,5.73
2017-11-10T20:05:56.552Z,12.57
2017-11-10T20:07:57.767Z,12.03
2017-11-10T20:09:58.787Z,13.00
2017-11-10T20:11:59.741Z,14.50
2017-11-10T20:14:00.724Z,18.20
2017-11-10T20:16:01.730Z,11.40
2017-11-10T20:18:02.708Z,10.23
2017-11-10T20:20:03.670Z,8.40
2017-11-10T20:22:04.632Z,9.30
2017-11-10T20:24:05.568Z,3.77
2017-11-10T20:26:06.492Z,5.47
2017-11-10T20:28:07.437Z,13.27
2017-11-10T20:30:08.396Z,5.30
2017-11-10T20:32:09.331Z,7.57
2017-11-10T20:34:10.261Z,8.43
2017-11-10T20:36:11.215Z,6.30
2017-11-10T20:38:12.144Z,10.73
2017-11-10T20:40:13.077Z,11.93
2017-11-10T20:42:14.012Z,14.00
2017-11-10T20:44:14.961Z,5.63
2017-11-10T20:46:16.909Z,7.00
2017-11-10T20:48:17.885Z,18.70
2017-11-10T20:50:18.881Z,4.37
2017-11-10T20:52:19.848Z,11.00
2017-11-10T20:54:20.797Z,7.30
2017-11-10T20:56:22.521Z,17.73
2017-11-10T20:58:24.553Z,10.03
2017-11-10T21:00:25.541Z,7.03
2017-11-10T21:02:26.567Z,16.27
2017-11-10T21:04:27.566Z,10.63
2017-11-10T21:06:28.548Z,23.03
2017-11-10T21:08:29.539Z,15.60
2017-11-10T21:10:30.503Z,8.93
2017-11-10T21:12:31.460Z,14.90
2017-11-10T21:14:33.161Z,22.27
2017-11-10T21:16:34.153Z,12.67
2017-11-10T21:18:35.165Z,10.83
2017-11-10T21:20:36.235Z,19.60
2017-11-10T21:22:37.254Z,7.67
2017-11-10T21:24:38.256Z,7.93
2017-11-10T21:26:39.981Z,15.00
2017-11-10T21:28:40.953Z,19.83
2017-11-10T21:30:41.960Z,11.43
2017-11-10T21:32:42.969Z,7.63
2017-11-10T21:34:44.660Z,20.97
2017-11-10T21:36:45.615Z,14.40
2017-11-10T21:38:46.592Z,20.80
2017-11-10T21:40:47.569Z,6.70
2017-11-10T21:42:49.306Z,8.93
2017-11-10T21:44:50.278Z,13.60
2017-11-10T21:46:51.272Z,6.27
2017-11-10T21:48:52.964Z,9.03
2017-11-10T21:50:53.976Z,13.93
2017-11-10T21:52:55.009Z,15.90
2017-11-10T21:54:56.038Z,11.90
2017-11-10T21:56:57.048Z,11.57
2017-11-10T21:58:58.078Z,7.63
2017-11-10T22:00:59.143Z,11.53
2017-11-10T22:03:00.153Z,7.73
2017-11-10T22:05:01.908Z,13.20
2017-11-10T22:07:02.914Z,16.87
2017-11-10T22:09:03.903Z,11.23
2017-11-10T22:11:04.846Z,16.00
2017-11-10T22:13:05.789Z,7.90
2017-11-10T22:15:06.744Z,10.93
2017-11-10T22:17:07.737Z,8.10
2017-11-10T22:19:09.025Z,14.47
2017-11-10T22:21:10.728Z,10.30
2017-11-10T22:23:11.689Z,15.00
2017-11-10T22:25:12.734Z,6.47
2017-11-10T22:27:13.734Z,15.77
2017-11-10T22:29:14.700Z,15.77
2017-11-10T22:31:15.665Z,11.37
2017-11-10T22:33:16.601Z,10.40
2017-11-10T22:35:17.581Z,8.80
2017-11-10T22:37:18.581Z,19.27
2017-11-10T22:39:19.557Z,16.40
2017-11-10T22:41:20.522Z,12.63
2017-11-10T22:43:21.533Z,14.93
2017-11-10T22:45:22.597Z,13.07
2017-11-10T22:47:23.605Z,14.57
2017-11-10T22:49:24.590Z,13.70
2017-11-10T22:51:25.592Z,11.90
2017-11-10T22:53:26.649Z,19.80
2017-11-10T22:55:27.658Z,12.30
2017-11-10T22:57:28.633Z,27.27
2017-11-10T22:59:29.646Z,12.53
2017-11-10T23:01:30.610Z,24.03
2017-11-10T23:03:32.292Z,12.27
2017-11-10T23:05:33.276Z,14.63
2017-11-10T23:07:34.279Z,13.63
2017-11-10T23:09:35.241Z,11.03
2017-11-10T23:11:36.268Z,12.47
2017-11-10T23:13:37.228Z,17.93
2017-11-10T23:15:38.257Z,25.43
2017-11-10T23:17:39.270Z,16.97
2017-11-10T23:19:40.282Z,16.70
2017-11-10T23:21:41.325Z,10.10
2017-11-10T23:23:42.317Z,12.13
2017-11-10T23:25:43.374Z,16.30
2017-11-10T23:27:44.342Z,12.40
2017-11-10T23:29:46.038Z,12.40
2017-11-10T23:31:47.036Z,12.43
2017-11-10T23:33:48.000Z,21.43
2017-11-10T23:35:48.998Z,20.83
2017-11-10T23:37:49.965Z,14.83
2017-11-10T23:39:50.918Z,16.57
2017-11-10T23:41:51.898Z,14.83
2017-11-10T23:43:52.918Z,13.70
2017-11-10T23:45:54.740Z,7.37
2017-11-10T23:47:55.746Z,12.73
2017-11-10T23:49:57.561Z,10.40
2017-11-10T23:51:58.552Z,34.40
2017-11-10T23:54:01.786Z,13.50
2017-11-10T23:56:02.786Z,16.93
2017-11-10T23:58:03.762Z,18.83
